Terminal Aerodrome Forecast
Issued by NWS

Home | Current Version | Previous Version | Text Only | Print | Product List | Glossary On
Versions: 1 2 3 4 5 6 7 8 9 10 11 12 13 14 15 16 17 18 19 20 21 22 23 24 25 26 27 28 29 30 31 32 33 34 35 36 37 38
000
FTUS43 KMPX 241200 CCA
TAFAXN
TAF COR
KAXN 241200Z 2412/2512 02005KT P6SM BKN050
      TEMPO 2412/2414 1SM BR
     FM241600 04014G21KT P6SM OVC025
     FM242200 05012G19KT P6SM BKN035
     FM250200 05009KT P6SM SCT070=

USA.gov is the U.S. government's official web portal to all federal, state and local government web resources and services.